sensor_id;sensor_type;location;lat;lon;timestamp;P1;durP1;ratioP1;P2;durP2;ratioP2
39612;SDS011;25303;48.896;13.342;2022-12-11T00:00:16;20.45;;;6.72;;
39612;SDS011;25303;48.896;13.342;2022-12-11T00:02:59;15.80;;;5.70;;
39612;SDS011;25303;48.896;13.342;2022-12-11T00:05:43;18.73;;;7.10;;
39612;SDS011;25303;48.896;13.342;2022-12-11T00:08:28;18.05;;;6.93;;
39612;SDS011;25303;48.896;13.342;2022-12-11T00:11:11;17.63;;;6.47;;
39612;SDS011;25303;48.896;13.342;2022-12-11T00:13:55;16.48;;;7.40;;
39612;SDS011;25303;48.896;13.342;2022-12-11T00:16:38;19.55;;;7.50;;
39612;SDS011;25303;48.896;13.342;2022-12-11T00:19:21;21.35;;;8.68;;
39612;SDS011;25303;48.896;13.342;2022-12-11T00:22:04;27.20;;;10.60;;
39612;SDS011;25303;48.896;13.342;2022-12-11T00:24:48;25.05;;;9.35;;
39612;SDS011;25303;48.896;13.342;2022-12-11T00:27:31;25.38;;;9.55;;
39612;SDS011;25303;48.896;13.342;2022-12-11T00:30:14;25.67;;;9.52;;
39612;SDS011;25303;48.896;13.342;2022-12-11T00:32:57;31.33;;;11.40;;
39612;SDS011;25303;48.896;13.342;2022-12-11T00:35:40;22.55;;;9.32;;
39612;SDS011;25303;48.896;13.342;2022-12-11T00:38:25;25.25;;;9.85;;
39612;SDS011;25303;48.896;13.342;2022-12-11T00:41:09;30.70;;;12.40;;
39612;SDS011;25303;48.896;13.342;2022-12-11T00:43:52;28.92;;;10.27;;
39612;SDS011;25303;48.896;13.342;2022-12-11T00:46:35;24.50;;;10.32;;
39612;SDS011;25303;48.896;13.342;2022-12-11T00:49:18;23.35;;;8.55;;
39612;SDS011;25303;48.896;13.342;2022-12-11T00:52:00;18.30;;;7.03;;
39612;SDS011;25303;48.896;13.342;2022-12-11T00:54:43;19.83;;;8.35;;
39612;SDS011;25303;48.896;13.342;2022-12-11T00:57:28;20.33;;;7.88;;
39612;SDS011;25303;48.896;13.342;2022-12-11T01:00:11;17.17;;;6.68;;
39612;SDS011;25303;48.896;13.342;2022-12-11T01:02:55;20.13;;;6.43;;
39612;SDS011;25303;48.896;13.342;2022-12-11T01:05:38;20.50;;;7.65;;
39612;SDS011;25303;48.896;13.342;2022-12-11T01:08:21;22.70;;;8.05;;
39612;SDS011;25303;48.896;13.342;2022-12-11T01:11:05;16.52;;;6.13;;
39612;SDS011;25303;48.896;13.342;2022-12-11T01:13:51;16.35;;;5.97;;
39612;SDS011;25303;48.896;13.342;2022-12-11T01:16:34;14.60;;;5.25;;
39612;SDS011;25303;48.896;13.342;2022-12-11T01:19:18;13.67;;;5.13;;
39612;SDS011;25303;48.896;13.342;2022-12-11T01:22:01;14.65;;;5.70;;
39612;SDS011;25303;48.896;13.342;2022-12-11T01:24:44;15.18;;;5.78;;
39612;SDS011;25303;48.896;13.342;2022-12-11T01:27:26;16.67;;;6.53;;
39612;SDS011;25303;48.896;13.342;2022-12-11T01:30:11;15.50;;;6.50;;
39612;SDS011;25303;48.896;13.342;2022-12-11T01:32:54;18.00;;;6.55;;
39612;SDS011;25303;48.896;13.342;2022-12-11T01:35:37;19.67;;;7.50;;
39612;SDS011;25303;48.896;13.342;2022-12-11T01:38:21;29.15;;;11.02;;
39612;SDS011;25303;48.896;13.342;2022-12-11T01:41:04;24.88;;;9.40;;
39612;SDS011;25303;48.896;13.342;2022-12-11T01:44:01;23.45;;;8.57;;
39612;SDS011;25303;48.896;13.342;2022-12-11T01:46:48;19.38;;;7.72;;
39612;SDS011;25303;48.896;13.342;2022-12-11T01:49:31;20.92;;;7.55;;
39612;SDS011;25303;48.896;13.342;2022-12-11T01:52:15;22.23;;;7.93;;
39612;SDS011;25303;48.896;13.342;2022-12-11T01:55:01;22.63;;;8.38;;
39612;SDS011;25303;48.896;13.342;2022-12-11T01:57:44;27.35;;;10.85;;
39612;SDS011;25303;48.896;13.342;2022-12-11T02:00:30;31.65;;;12.55;;
39612;SDS011;25303;48.896;13.342;2022-12-11T02:03:14;25.65;;;10.43;;
39612;SDS011;25303;48.896;13.342;2022-12-11T02:05:58;23.67;;;9.15;;
39612;SDS011;25303;48.896;13.342;2022-12-11T02:08:41;25.98;;;10.38;;
39612;SDS011;25303;48.896;13.342;2022-12-11T02:11:24;25.17;;;9.57;;
39612;SDS011;25303;48.896;13.342;2022-12-11T02:14:18;22.83;;;8.93;;
39612;SDS011;25303;48.896;13.342;2022-12-11T02:17:09;19.45;;;8.20;;
39612;SDS011;25303;48.896;13.342;2022-12-11T02:19:59;19.25;;;7.43;;
39612;SDS011;25303;48.896;13.342;2022-12-11T02:22:57;25.95;;;9.25;;
39612;SDS011;25303;48.896;13.342;2022-12-11T02:25:50;25.80;;;9.45;;
39612;SDS011;25303;48.896;13.342;2022-12-11T02:28:44;26.15;;;9.57;;
39612;SDS011;25303;48.896;13.342;2022-12-11T02:31:31;20.08;;;7.38;;
39612;SDS011;25303;48.896;13.342;2022-12-11T02:34:19;18.08;;;7.13;;
39612;SDS011;25303;48.896;13.342;2022-12-11T02:37:07;16.98;;;6.43;;
39612;SDS011;25303;48.896;13.342;2022-12-11T02:39:54;18.85;;;7.40;;
39612;SDS011;25303;48.896;13.342;2022-12-11T02:42:39;17.77;;;7.60;;
39612;SDS011;25303;48.896;13.342;2022-12-11T02:45:25;15.23;;;7.10;;
39612;SDS011;25303;48.896;13.342;2022-12-11T02:48:10;20.77;;;8.30;;
39612;SDS011;25303;48.896;13.342;2022-12-11T02:50:55;16.35;;;6.85;;
39612;SDS011;25303;48.896;13.342;2022-12-11T02:53:39;16.98;;;6.95;;
39612;SDS011;25303;48.896;13.342;2022-12-11T02:56:26;17.52;;;6.50;;
39612;SDS011;25303;48.896;13.342;2022-12-11T02:59:13;17.77;;;7.45;;
39612;SDS011;25303;48.896;13.342;2022-12-11T03:02:02;14.48;;;6.05;;
39612;SDS011;25303;48.896;13.342;2022-12-11T03:04:45;15.40;;;6.65;;
39612;SDS011;25303;48.896;13.342;2022-12-11T03:07:30;13.35;;;5.55;;
39612;SDS011;25303;48.896;13.342;2022-12-11T03:10:16;13.73;;;6.03;;
39612;SDS011;25303;48.896;13.342;2022-12-11T03:13:01;14.38;;;6.45;;
39612;SDS011;25303;48.896;13.342;2022-12-11T03:15:47;13.27;;;5.70;;
39612;SDS011;25303;48.896;13.342;2022-12-11T03:18:43;15.48;;;6.80;;
39612;SDS011;25303;48.896;13.342;2022-12-11T03:21:35;14.00;;;6.05;;
39612;SDS011;25303;48.896;13.342;2022-12-11T03:24:25;15.95;;;6.32;;
39612;SDS011;25303;48.896;13.342;2022-12-11T03:27:14;14.95;;;5.82;;
39612;SDS011;25303;48.896;13.342;2022-12-11T03:30:02;16.30;;;6.68;;
39612;SDS011;25303;48.896;13.342;2022-12-11T03:32:48;13.07;;;5.47;;
39612;SDS011;25303;48.896;13.342;2022-12-11T03:35:35;10.70;;;5.05;;
39612;SDS011;25303;48.896;13.342;2022-12-11T03:38:22;11.55;;;4.57;;
39612;SDS011;25303;48.896;13.342;2022-12-11T03:41:07;13.68;;;5.82;;
39612;SDS011;25303;48.896;13.342;2022-12-11T03:43:52;14.55;;;6.40;;
39612;SDS011;25303;48.896;13.342;2022-12-11T03:46:37;12.75;;;5.68;;
39612;SDS011;25303;48.896;13.342;2022-12-11T03:49:24;11.15;;;4.85;;
39612;SDS011;25303;48.896;13.342;2022-12-11T03:52:13;12.23;;;4.75;;
39612;SDS011;25303;48.896;13.342;2022-12-11T03:54:59;14.20;;;5.55;;
39612;SDS011;25303;48.896;13.342;2022-12-11T03:57:44;14.90;;;6.40;;
39612;SDS011;25303;48.896;13.342;2022-12-11T04:00:27;14.18;;;6.03;;
39612;SDS011;25303;48.896;13.342;2022-12-11T04:03:11;13.90;;;6.53;;
39612;SDS011;25303;48.896;13.342;2022-12-11T04:05:55;14.73;;;6.25;;
39612;SDS011;25303;48.896;13.342;2022-12-11T04:08:39;12.63;;;5.70;;
39612;SDS011;25303;48.896;13.342;2022-12-11T04:11:22;14.32;;;6.20;;
39612;SDS011;25303;48.896;13.342;2022-12-11T04:14:17;14.70;;;6.28;;
39612;SDS011;25303;48.896;13.342;2022-12-11T04:17:19;16.70;;;6.38;;
39612;SDS011;25303;48.896;13.342;2022-12-11T04:20:16;15.13;;;6.50;;
39612;SDS011;25303;48.896;13.342;2022-12-11T04:23:17;14.52;;;6.45;;
39612;SDS011;25303;48.896;13.342;2022-12-11T04:26:19;13.30;;;5.90;;
39612;SDS011;25303;48.896;13.342;2022-12-11T04:29:02;14.75;;;6.95;;
39612;SDS011;25303;48.896;13.342;2022-12-11T04:31:45;14.32;;;6.55;;
39612;SDS011;25303;48.896;13.342;2022-12-11T04:34:28;19.23;;;9.00;;
39612;SDS011;25303;48.896;13.342;2022-12-11T04:37:11;15.55;;;6.82;;
39612;SDS011;25303;48.896;13.342;2022-12-11T04:39:54;15.20;;;6.70;;
39612;SDS011;25303;48.896;13.342;2022-12-11T04:42:38;12.43;;;5.63;;
39612;SDS011;25303;48.896;13.342;2022-12-11T04:48:04;15.15;;;6.30;;
39612;SDS011;25303;48.896;13.342;2022-12-11T04:50:48;17.58;;;7.25;;
39612;SDS011;25303;48.896;13.342;2022-12-11T04:53:30;13.73;;;5.53;;
39612;SDS011;25303;48.896;13.342;2022-12-11T04:56:14;16.52;;;6.75;;
39612;SDS011;25303;48.896;13.342;2022-12-11T04:58:59;14.63;;;5.63;;
39612;SDS011;25303;48.896;13.342;2022-12-11T05:01:42;12.60;;;5.32;;
39612;SDS011;25303;48.896;13.342;2022-12-11T05:04:29;12.65;;;5.47;;
39612;SDS011;25303;48.896;13.342;2022-12-11T05:07:12;13.80;;;6.53;;
39612;SDS011;25303;48.896;13.342;2022-12-11T05:09:55;12.45;;;5.45;;
39612;SDS011;25303;48.896;13.342;2022-12-11T05:12:38;11.98;;;5.43;;
39612;SDS011;25303;48.896;13.342;2022-12-11T05:15:22;15.07;;;6.05;;
39612;SDS011;25303;48.896;13.342;2022-12-11T05:18:05;12.95;;;5.82;;
39612;SDS011;25303;48.896;13.342;2022-12-11T05:20:53;12.73;;;5.20;;
39612;SDS011;25303;48.896;13.342;2022-12-11T05:23:37;9.55;;;4.28;;
39612;SDS011;25303;48.896;13.342;2022-12-11T05:26:20;8.57;;;3.77;;
39612;SDS011;25303;48.896;13.342;2022-12-11T05:29:03;12.07;;;5.32;;
39612;SDS011;25303;48.896;13.342;2022-12-11T05:31:47;11.43;;;5.15;;
39612;SDS011;25303;48.896;13.342;2022-12-11T05:34:30;9.85;;;4.50;;
39612;SDS011;25303;48.896;13.342;2022-12-11T05:37:13;9.57;;;3.83;;
39612;SDS011;25303;48.896;13.342;2022-12-11T05:39:56;10.63;;;4.13;;
39612;SDS011;25303;48.896;13.342;2022-12-11T05:42:39;9.68;;;3.83;;
39612;SDS011;25303;48.896;13.342;2022-12-11T05:45:22;9.60;;;4.22;;
39612;SDS011;25303;48.896;13.342;2022-12-11T05:48:06;8.32;;;3.55;;
39612;SDS011;25303;48.896;13.342;2022-12-11T05:50:56;7.93;;;3.65;;
39612;SDS011;25303;48.896;13.342;2022-12-11T05:53:40;10.07;;;4.60;;
39612;SDS011;25303;48.896;13.342;2022-12-11T05:59:07;5.93;;;2.95;;
39612;SDS011;25303;48.896;13.342;2022-12-11T06:01:50;8.52;;;3.63;;
39612;SDS011;25303;48.896;13.342;2022-12-11T06:04:35;9.05;;;3.65;;
39612;SDS011;25303;48.896;13.342;2022-12-11T06:07:18;11.10;;;4.45;;
39612;SDS011;25303;48.896;13.342;2022-12-11T06:10:00;11.50;;;5.20;;
39612;SDS011;25303;48.896;13.342;2022-12-11T06:12:43;10.68;;;4.60;;
39612;SDS011;25303;48.896;13.342;2022-12-11T06:15:26;12.43;;;5.50;;
39612;SDS011;25303;48.896;13.342;2022-12-11T06:18:09;11.65;;;4.80;;
39612;SDS011;25303;48.896;13.342;2022-12-11T06:20:53;12.48;;;5.43;;
39612;SDS011;25303;48.896;13.342;2022-12-11T06:23:36;12.43;;;5.18;;
39612;SDS011;25303;48.896;13.342;2022-12-11T06:26:19;11.70;;;5.28;;
39612;SDS011;25303;48.896;13.342;2022-12-11T06:29:02;12.93;;;5.10;;
39612;SDS011;25303;48.896;13.342;2022-12-11T06:31:53;9.48;;;4.28;;
39612;SDS011;25303;48.896;13.342;2022-12-11T06:34:36;16.10;;;5.90;;
39612;SDS011;25303;48.896;13.342;2022-12-11T06:37:20;12.50;;;4.82;;
39612;SDS011;25303;48.896;13.342;2022-12-11T06:40:03;14.50;;;6.00;;
39612;SDS011;25303;48.896;13.342;2022-12-11T06:42:47;14.88;;;6.55;;
39612;SDS011;25303;48.896;13.342;2022-12-11T06:45:30;12.05;;;5.05;;
39612;SDS011;25303;48.896;13.342;2022-12-11T06:48:13;14.45;;;5.38;;
39612;SDS011;25303;48.896;13.342;2022-12-11T06:50:56;16.52;;;7.00;;
39612;SDS011;25303;48.896;13.342;2022-12-11T06:53:40;11.85;;;4.85;;
39612;SDS011;25303;48.896;13.342;2022-12-11T06:56:24;14.52;;;5.35;;
39612;SDS011;25303;48.896;13.342;2022-12-11T06:59:09;13.48;;;5.70;;
39612;SDS011;25303;48.896;13.342;2022-12-11T07:01:52;12.38;;;5.70;;
39612;SDS011;25303;48.896;13.342;2022-12-11T07:04:35;11.48;;;5.07;;
39612;SDS011;25303;48.896;13.342;2022-12-11T07:07:18;11.13;;;4.57;;
39612;SDS011;25303;48.896;13.342;2022-12-11T07:10:03;10.13;;;4.45;;
39612;SDS011;25303;48.896;13.342;2022-12-11T07:12:49;12.20;;;5.15;;
39612;SDS011;25303;48.896;13.342;2022-12-11T07:15:34;12.30;;;4.97;;
39612;SDS011;25303;48.896;13.342;2022-12-11T07:18:21;10.95;;;4.65;;
39612;SDS011;25303;48.896;13.342;2022-12-11T07:21:04;10.50;;;4.28;;
39612;SDS011;25303;48.896;13.342;2022-12-11T07:23:47;10.55;;;4.38;;
39612;SDS011;25303;48.896;13.342;2022-12-11T07:26:32;10.57;;;4.57;;
39612;SDS011;25303;48.896;13.342;2022-12-11T07:29:15;13.02;;;5.68;;
39612;SDS011;25303;48.896;13.342;2022-12-11T07:31:58;18.80;;;7.57;;
39612;SDS011;25303;48.896;13.342;2022-12-11T07:34:41;14.88;;;5.95;;
39612;SDS011;25303;48.896;13.342;2022-12-11T07:37:31;17.23;;;6.72;;
39612;SDS011;25303;48.896;13.342;2022-12-11T07:40:14;13.55;;;5.70;;
39612;SDS011;25303;48.896;13.342;2022-12-11T07:42:59;17.88;;;6.82;;
39612;SDS011;25303;48.896;13.342;2022-12-11T07:45:42;20.27;;;8.40;;
39612;SDS011;25303;48.896;13.342;2022-12-11T07:48:25;17.10;;;6.60;;
39612;SDS011;25303;48.896;13.342;2022-12-11T07:51:08;18.58;;;7.82;;
39612;SDS011;25303;48.896;13.342;2022-12-11T07:53:53;14.60;;;6.20;;
39612;SDS011;25303;48.896;13.342;2022-12-11T07:59:25;16.52;;;5.97;;
39612;SDS011;25303;48.896;13.342;2022-12-11T08:02:08;17.08;;;7.38;;
39612;SDS011;25303;48.896;13.342;2022-12-11T08:04:52;15.60;;;7.07;;
39612;SDS011;25303;48.896;13.342;2022-12-11T08:07:35;12.70;;;5.60;;
39612;SDS011;25303;48.896;13.342;2022-12-11T08:10:18;15.07;;;6.03;;
39612;SDS011;25303;48.896;13.342;2022-12-11T08:13:01;11.52;;;4.78;;
39612;SDS011;25303;48.896;13.342;2022-12-11T08:15:45;12.48;;;5.45;;
39612;SDS011;25303;48.896;13.342;2022-12-11T08:18:28;24.75;;;9.75;;
39612;SDS011;25303;48.896;13.342;2022-12-11T08:21:12;20.17;;;7.93;;
39612;SDS011;25303;48.896;13.342;2022-12-11T08:23:56;18.20;;;7.10;;
39612;SDS011;25303;48.896;13.342;2022-12-11T08:26:39;17.67;;;6.78;;
39612;SDS011;25303;48.896;13.342;2022-12-11T08:29:22;15.98;;;6.50;;
39612;SDS011;25303;48.896;13.342;2022-12-11T08:32:06;13.75;;;5.53;;
39612;SDS011;25303;48.896;13.342;2022-12-11T08:34:53;15.63;;;7.00;;
39612;SDS011;25303;48.896;13.342;2022-12-11T08:37:35;20.73;;;9.32;;
39612;SDS011;25303;48.896;13.342;2022-12-11T08:40:18;14.88;;;7.40;;
39612;SDS011;25303;48.896;13.342;2022-12-11T08:43:01;11.10;;;5.20;;
39612;SDS011;25303;48.896;13.342;2022-12-11T08:45:46;14.40;;;6.70;;
39612;SDS011;25303;48.896;13.342;2022-12-11T08:48:31;16.52;;;7.75;;
39612;SDS011;25303;48.896;13.342;2022-12-11T08:51:15;13.85;;;6.30;;
39612;SDS011;25303;48.896;13.342;2022-12-11T08:54:01;16.02;;;7.13;;
39612;SDS011;25303;48.896;13.342;2022-12-11T08:56:43;14.18;;;5.88;;
39612;SDS011;25303;48.896;13.342;2022-12-11T08:59:26;13.80;;;5.82;;
39612;SDS011;25303;48.896;13.342;2022-12-11T09:02:09;16.65;;;7.80;;
39612;SDS011;25303;48.896;13.342;2022-12-11T09:04:55;17.23;;;7.60;;
39612;SDS011;25303;48.896;13.342;2022-12-11T09:07:38;12.50;;;6.00;;
39612;SDS011;25303;48.896;13.342;2022-12-11T09:10:20;13.88;;;6.68;;
39612;SDS011;25303;48.896;13.342;2022-12-11T09:13:03;16.98;;;7.40;;
39612;SDS011;25303;48.896;13.342;2022-12-11T09:15:46;14.55;;;6.32;;
39612;SDS011;25303;48.896;13.342;2022-12-11T09:18:29;11.32;;;5.53;;
39612;SDS011;25303;48.896;13.342;2022-12-11T09:21:15;11.20;;;5.63;;
39612;SDS011;25303;48.896;13.342;2022-12-11T09:24:00;13.70;;;6.07;;
39612;SDS011;25303;48.896;13.342;2022-12-11T09:26:43;16.65;;;7.43;;
39612;SDS011;25303;48.896;13.342;2022-12-11T09:29:27;11.30;;;5.15;;
39612;SDS011;25303;48.896;13.342;2022-12-11T09:32:10;14.45;;;5.90;;
39612;SDS011;25303;48.896;13.342;2022-12-11T09:34:53;14.60;;;6.43;;
39612;SDS011;25303;48.896;13.342;2022-12-11T09:37:37;13.77;;;6.75;;
39612;SDS011;25303;48.896;13.342;2022-12-11T09:40:20;21.85;;;9.55;;
39612;SDS011;25303;48.896;13.342;2022-12-11T09:43:05;18.05;;;8.88;;
39612;SDS011;25303;48.896;13.342;2022-12-11T09:45:58;15.52;;;6.90;;
39612;SDS011;25303;48.896;13.342;2022-12-11T09:48:45;14.50;;;6.43;;
39612;SDS011;25303;48.896;13.342;2022-12-11T09:51:31;24.58;;;11.40;;
39612;SDS011;25303;48.896;13.342;2022-12-11T09:54:22;16.08;;;7.85;;
39612;SDS011;25303;48.896;13.342;2022-12-11T09:57:08;16.55;;;7.88;;
39612;SDS011;25303;48.896;13.342;2022-12-11T10:00:04;13.48;;;5.90;;
39612;SDS011;25303;48.896;13.342;2022-12-11T10:02:57;23.17;;;10.65;;
39612;SDS011;25303;48.896;13.342;2022-12-11T10:05:51;15.50;;;7.40;;
39612;SDS011;25303;48.896;13.342;2022-12-11T10:08:47;15.30;;;7.63;;
39612;SDS011;25303;48.896;13.342;2022-12-11T10:11:47;14.60;;;6.28;;
39612;SDS011;25303;48.896;13.342;2022-12-11T10:14:40;13.30;;;6.18;;
39612;SDS011;25303;48.896;13.342;2022-12-11T10:17:33;11.68;;;5.30;;
39612;SDS011;25303;48.896;13.342;2022-12-11T10:20:21;10.90;;;5.18;;
39612;SDS011;25303;48.896;13.342;2022-12-11T10:23:07;10.15;;;4.95;;
39612;SDS011;25303;48.896;13.342;2022-12-11T10:25:55;10.80;;;4.93;;
39612;SDS011;25303;48.896;13.342;2022-12-11T10:28:45;10.32;;;4.85;;
39612;SDS011;25303;48.896;13.342;2022-12-11T10:31:31;12.45;;;5.90;;
39612;SDS011;25303;48.896;13.342;2022-12-11T10:34:25;14.18;;;6.30;;
39612;SDS011;25303;48.896;13.342;2022-12-11T10:37:14;10.55;;;4.93;;
39612;SDS011;25303;48.896;13.342;2022-12-11T10:39:57;7.97;;;3.78;;
39612;SDS011;25303;48.896;13.342;2022-12-11T10:42:49;6.72;;;3.33;;
39612;SDS011;25303;48.896;13.342;2022-12-11T10:45:34;6.63;;;3.30;;
39612;SDS011;25303;48.896;13.342;2022-12-11T10:48:17;9.82;;;4.55;;
39612;SDS011;25303;48.896;13.342;2022-12-11T10:51:02;6.18;;;3.10;;
39612;SDS011;25303;48.896;13.342;2022-12-11T10:53:50;8.95;;;3.30;;
39612;SDS011;25303;48.896;13.342;2022-12-11T10:56:34;7.90;;;3.80;;
39612;SDS011;25303;48.896;13.342;2022-12-11T10:59:21;10.75;;;4.03;;
39612;SDS011;25303;48.896;13.342;2022-12-11T11:02:18;18.38;;;7.90;;
39612;SDS011;25303;48.896;13.342;2022-12-11T11:05:10;10.02;;;4.80;;
39612;SDS011;25303;48.896;13.342;2022-12-11T11:08:01;9.05;;;4.15;;
39612;SDS011;25303;48.896;13.342;2022-12-11T11:10:52;9.95;;;4.20;;
39612;SDS011;25303;48.896;13.342;2022-12-11T11:13:36;9.35;;;4.32;;
39612;SDS011;25303;48.896;13.342;2022-12-11T11:16:19;13.52;;;6.00;;
39612;SDS011;25303;48.896;13.342;2022-12-11T11:19:05;11.80;;;5.35;;
39612;SDS011;25303;48.896;13.342;2022-12-11T11:21:49;9.77;;;4.18;;
39612;SDS011;25303;48.896;13.342;2022-12-11T11:24:34;9.70;;;4.20;;
39612;SDS011;25303;48.896;13.342;2022-12-11T11:27:24;19.35;;;9.13;;
39612;SDS011;25303;48.896;13.342;2022-12-11T11:30:16;23.67;;;9.65;;
39612;SDS011;25303;48.896;13.342;2022-12-11T11:33:01;12.45;;;6.03;;
39612;SDS011;25303;48.896;13.342;2022-12-11T11:35:51;13.13;;;6.68;;
39612;SDS011;25303;48.896;13.342;2022-12-11T11:38:36;12.38;;;6.45;;
39612;SDS011;25303;48.896;13.342;2022-12-11T11:41:26;8.85;;;4.63;;
39612;SDS011;25303;48.896;13.342;2022-12-11T11:44:17;8.85;;;4.05;;
39612;SDS011;25303;48.896;13.342;2022-12-11T11:47:08;7.35;;;3.58;;
39612;SDS011;25303;48.896;13.342;2022-12-11T11:49:58;5.82;;;3.28;;
39612;SDS011;25303;48.896;13.342;2022-12-11T11:52:47;6.93;;;3.28;;
39612;SDS011;25303;48.896;13.342;2022-12-11T11:55:37;7.55;;;3.75;;
39612;SDS011;25303;48.896;13.342;2022-12-11T11:58:25;7.88;;;2.88;;
39612;SDS011;25303;48.896;13.342;2022-12-11T12:01:16;6.18;;;2.85;;
39612;SDS011;25303;48.896;13.342;2022-12-11T12:04:02;6.38;;;3.03;;
39612;SDS011;25303;48.896;13.342;2022-12-11T12:09:43;12.48;;;4.50;;
39612;SDS011;25303;48.896;13.342;2022-12-11T12:12:36;9.45;;;3.90;;
39612;SDS011;25303;48.896;13.342;2022-12-11T12:15:29;23.02;;;11.05;;
39612;SDS011;25303;48.896;13.342;2022-12-11T12:18:21;11.93;;;5.15;;
39612;SDS011;25303;48.896;13.342;2022-12-11T12:21:18;7.57;;;3.97;;
39612;SDS011;25303;48.896;13.342;2022-12-11T12:24:11;7.63;;;3.95;;
39612;SDS011;25303;48.896;13.342;2022-12-11T12:27:12;4.80;;;2.70;;
39612;SDS011;25303;48.896;13.342;2022-12-11T12:30:22;7.05;;;3.22;;
39612;SDS011;25303;48.896;13.342;2022-12-11T12:33:14;6.47;;;3.30;;
39612;SDS011;25303;48.896;13.342;2022-12-11T12:36:10;5.78;;;3.10;;
39612;SDS011;25303;48.896;13.342;2022-12-11T12:39:01;5.47;;;2.70;;
39612;SDS011;25303;48.896;13.342;2022-12-11T12:41:50;7.10;;;3.20;;
39612;SDS011;25303;48.896;13.342;2022-12-11T12:44:49;5.07;;;2.70;;
39612;SDS011;25303;48.896;13.342;2022-12-11T12:47:39;6.68;;;3.10;;
39612;SDS011;25303;48.896;13.342;2022-12-11T12:50:32;7.28;;;3.67;;
39612;SDS011;25303;48.896;13.342;2022-12-11T12:53:22;5.18;;;2.65;;
39612;SDS011;25303;48.896;13.342;2022-12-11T12:56:06;5.50;;;2.75;;
39612;SDS011;25303;48.896;13.342;2022-12-11T12:58:52;5.32;;;2.50;;
39612;SDS011;25303;48.896;13.342;2022-12-11T13:01:37;6.45;;;3.17;;
39612;SDS011;25303;48.896;13.342;2022-12-11T13:07:32;4.40;;;2.40;;
39612;SDS011;25303;48.896;13.342;2022-12-11T13:10:23;4.93;;;2.33;;
39612;SDS011;25303;48.896;13.342;2022-12-11T13:16:23;6.47;;;2.72;;
39612;SDS011;25303;48.896;13.342;2022-12-11T13:19:24;4.68;;;2.13;;
39612;SDS011;25303;48.896;13.342;2022-12-11T13:22:19;4.30;;;2.20;;
39612;SDS011;25303;48.896;13.342;2022-12-11T13:25:15;4.22;;;2.38;;
39612;SDS011;25303;48.896;13.342;2022-12-11T13:28:06;5.10;;;2.35;;
39612;SDS011;25303;48.896;13.342;2022-12-11T13:31:00;7.00;;;3.05;;
39612;SDS011;25303;48.896;13.342;2022-12-11T13:33:46;6.30;;;3.35;;
39612;SDS011;25303;48.896;13.342;2022-12-11T13:36:32;6.05;;;3.10;;
39612;SDS011;25303;48.896;13.342;2022-12-11T13:39:18;5.97;;;2.80;;
39612;SDS011;25303;48.896;13.342;2022-12-11T13:42:05;6.82;;;3.20;;
39612;SDS011;25303;48.896;13.342;2022-12-11T13:45:02;7.70;;;3.40;;
39612;SDS011;25303;48.896;13.342;2022-12-11T13:47:45;7.38;;;3.08;;
39612;SDS011;25303;48.896;13.342;2022-12-11T13:50:29;6.63;;;3.08;;
39612;SDS011;25303;48.896;13.342;2022-12-11T13:53:16;6.78;;;3.20;;
39612;SDS011;25303;48.896;13.342;2022-12-11T13:56:00;6.47;;;2.90;;
39612;SDS011;25303;48.896;13.342;2022-12-11T13:58:45;8.63;;;3.80;;
39612;SDS011;25303;48.896;13.342;2022-12-11T14:01:29;9.93;;;4.13;;
39612;SDS011;25303;48.896;13.342;2022-12-11T14:04:16;8.68;;;3.92;;
39612;SDS011;25303;48.896;13.342;2022-12-11T14:07:04;9.55;;;4.55;;
39612;SDS011;25303;48.896;13.342;2022-12-11T14:09:50;8.07;;;3.70;;
39612;SDS011;25303;48.896;13.342;2022-12-11T14:12:41;7.22;;;3.20;;
39612;SDS011;25303;48.896;13.342;2022-12-11T14:15:29;7.47;;;3.10;;
39612;SDS011;25303;48.896;13.342;2022-12-11T14:18:14;6.38;;;2.90;;
39612;SDS011;25303;48.896;13.342;2022-12-11T14:21:03;6.65;;;3.38;;
39612;SDS011;25303;48.896;13.342;2022-12-11T14:23:50;6.28;;;2.75;;
39612;SDS011;25303;48.896;13.342;2022-12-11T14:26:35;6.25;;;2.90;;
39612;SDS011;25303;48.896;13.342;2022-12-11T14:29:23;11.07;;;4.00;;
39612;SDS011;25303;48.896;13.342;2022-12-11T14:32:07;16.33;;;6.47;;
39612;SDS011;25303;48.896;13.342;2022-12-11T14:34:50;8.57;;;4.18;;
39612;SDS011;25303;48.896;13.342;2022-12-11T14:37:35;8.25;;;4.03;;
39612;SDS011;25303;48.896;13.342;2022-12-11T14:40:19;8.63;;;4.00;;
39612;SDS011;25303;48.896;13.342;2022-12-11T14:43:08;8.88;;;3.90;;
39612;SDS011;25303;48.896;13.342;2022-12-11T14:45:58;8.20;;;3.42;;
39612;SDS011;25303;48.896;13.342;2022-12-11T14:48:45;6.30;;;3.22;;
39612;SDS011;25303;48.896;13.342;2022-12-11T14:51:41;6.80;;;3.03;;
39612;SDS011;25303;48.896;13.342;2022-12-11T14:54:26;5.70;;;2.78;;
39612;SDS011;25303;48.896;13.342;2022-12-11T14:57:16;5.40;;;2.72;;
39612;SDS011;25303;48.896;13.342;2022-12-11T15:00:03;7.68;;;3.60;;
39612;SDS011;25303;48.896;13.342;2022-12-11T15:02:55;5.85;;;2.65;;
39612;SDS011;25303;48.896;13.342;2022-12-11T15:05:47;6.25;;;2.72;;
39612;SDS011;25303;48.896;13.342;2022-12-11T15:08:32;7.32;;;2.80;;
39612;SDS011;25303;48.896;13.342;2022-12-11T15:11:17;5.28;;;2.75;;
39612;SDS011;25303;48.896;13.342;2022-12-11T15:14:02;7.10;;;3.33;;
39612;SDS011;25303;48.896;13.342;2022-12-11T15:16:47;6.15;;;3.25;;
39612;SDS011;25303;48.896;13.342;2022-12-11T15:19:32;6.90;;;3.42;;
39612;SDS011;25303;48.896;13.342;2022-12-11T15:22:16;5.40;;;2.70;;
39612;SDS011;25303;48.896;13.342;2022-12-11T15:25:01;6.80;;;2.83;;
39612;SDS011;25303;48.896;13.342;2022-12-11T15:27:48;5.97;;;2.88;;
39612;SDS011;25303;48.896;13.342;2022-12-11T15:30:33;6.03;;;2.78;;
39612;SDS011;25303;48.896;13.342;2022-12-11T15:33:19;6.00;;;2.63;;
39612;SDS011;25303;48.896;13.342;2022-12-11T15:36:03;6.50;;;3.10;;
39612;SDS011;25303;48.896;13.342;2022-12-11T15:38:48;7.18;;;3.33;;
39612;SDS011;25303;48.896;13.342;2022-12-11T15:41:31;9.07;;;4.10;;
39612;SDS011;25303;48.896;13.342;2022-12-11T15:44:16;10.38;;;4.18;;
39612;SDS011;25303;48.896;13.342;2022-12-11T15:47:09;11.23;;;4.50;;
39612;SDS011;25303;48.896;13.342;2022-12-11T15:49:56;16.60;;;5.40;;
39612;SDS011;25303;48.896;13.342;2022-12-11T15:52:40;9.60;;;4.22;;
39612;SDS011;25303;48.896;13.342;2022-12-11T15:55:24;9.20;;;3.72;;
39612;SDS011;25303;48.896;13.342;2022-12-11T15:58:12;6.45;;;3.00;;
39612;SDS011;25303;48.896;13.342;2022-12-11T16:00:58;10.57;;;4.60;;
39612;SDS011;25303;48.896;13.342;2022-12-11T16:03:41;8.90;;;4.07;;
39612;SDS011;25303;48.896;13.342;2022-12-11T16:06:25;8.90;;;4.10;;
39612;SDS011;25303;48.896;13.342;2022-12-11T16:11:50;7.57;;;3.63;;
39612;SDS011;25303;48.896;13.342;2022-12-11T16:14:33;9.30;;;4.35;;
39612;SDS011;25303;48.896;13.342;2022-12-11T16:17:19;9.80;;;4.65;;
39612;SDS011;25303;48.896;13.342;2022-12-11T16:20:02;9.35;;;4.25;;
39612;SDS011;25303;48.896;13.342;2022-12-11T16:22:47;13.55;;;4.60;;
39612;SDS011;25303;48.896;13.342;2022-12-11T16:25:30;10.18;;;4.60;;
39612;SDS011;25303;48.896;13.342;2022-12-11T16:28:15;7.70;;;3.63;;
39612;SDS011;25303;48.896;13.342;2022-12-11T16:31:01;9.27;;;4.05;;
39612;SDS011;25303;48.896;13.342;2022-12-11T16:33:44;7.40;;;3.00;;
39612;SDS011;25303;48.896;13.342;2022-12-11T16:36:26;7.20;;;3.28;;